Time;durP1;ratioP1;P1;durP2;ratioP2;P2;SDS_P1;SDS_P2;PMS_P1;PMS_P2;Temp;Humidity;BMP_temperature;BMP_pressure;BME280_temperature;BME280_humidity;BME280_pressure;Samples;Min_cycle;Max_cycle;Signal;HPM_P1;HPM_P2
2024/04/26 00:01:17;;;;;;;50.30;30.10;;;;;;;3.84;76.21;100458.34;108722;1260;139152;-65
2024/04/26 00:03:57;;;;;;;39.80;28.40;;;;;;;3.74;76.28;100456.88;108769;1260;65709;-64
2024/04/26 00:06:24;;;;;;;42.70;28.80;;;;;;;3.66;76.39;100457.17;108685;1260;139258;-64
2024/04/26 00:08:50;;;;;;;41.40;28.10;;;;;;;3.59;76.38;100457.33;108785;1260;60719;-64
2024/04/26 00:11:17;;;;;;;46.00;28.50;;;;;;;3.50;76.34;100461.62;108794;1260;60561;-64
2024/04/26 00:13:43;;;;;;;43.30;28.20;;;;;;;3.42;76.62;100462.80;108648;1264;138967;-64
2024/04/26 00:16:10;;;;;;;40.20;26.90;;;;;;;3.35;76.48;100459.14;108782;1260;67292;-64
2024/04/26 00:18:37;;;;;;;38.20;26.70;;;;;;;3.26;76.46;100462.20;108669;1260;139483;-64
2024/04/26 00:21:04;;;;;;;45.70;29.00;;;;;;;3.19;76.69;100467.38;108778;1260;60842;-64
2024/04/26 00:23:30;;;;;;;43.20;29.70;;;;;;;3.14;76.65;100468.34;108808;1260;60540;-64
2024/04/26 00:25:57;;;;;;;43.20;28.40;;;;;;;3.08;76.84;100469.40;108689;1261;139417;-64
2024/04/26 00:28:23;;;;;;;44.60;29.00;;;;;;;3.03;76.88;100472.25;108822;1261;60814;-64
2024/04/26 00:30:50;;;;;;;42.40;28.80;;;;;;;2.98;77.11;100469.95;108664;1260;139814;-64
2024/04/26 00:33:16;;;;;;;41.80;29.10;;;;;;;2.95;77.21;100472.23;108821;1260;60680;-63
2024/04/26 00:35:43;;;;;;;42.10;28.20;;;;;;;2.93;77.22;100474.55;108845;1260;60644;-64
2024/04/26 00:38:09;;;;;;;42.90;28.10;;;;;;;2.92;77.35;100474.35;108688;1260;140138;-64
2024/04/26 00:40:36;;;;;;;42.80;28.70;;;;;;;2.90;77.47;100470.09;108876;1260;60554;-64
2024/04/26 00:43:02;;;;;;;42.10;30.00;;;;;;;2.87;77.51;100471.34;108676;1260;139359;-64
2024/04/26 00:45:29;;;;;;;43.80;29.00;;;;;;;2.85;77.58;100472.08;108835;1260;60958;-64
2024/04/26 00:47:55;;;;;;;39.10;28.20;;;;;;;2.81;77.34;100468.73;108612;1261;139873;-64
2024/04/26 00:50:21;;;;;;;40.90;29.80;;;;;;;2.77;77.63;100473.39;108758;1260;75091;-64
2024/04/26 00:52:48;;;;;;;42.80;30.10;;;;;;;2.74;77.50;100475.34;108751;1260;60687;-64
2024/04/26 00:55:14;;;;;;;41.60;28.80;;;;;;;2.72;77.73;100475.75;108694;1260;139098;-64
2024/04/26 00:57:41;;;;;;;47.40;28.10;;;;;;;2.71;77.82;100476.21;108727;1260;60986;-64
2024/04/26 01:00:08;;;;;;;47.50;29.10;;;;;;;2.71;78.11;100477.25;108624;1260;140110;-63
2024/04/26 01:02:34;;;;;;;49.20;29.10;;;;;;;2.71;78.06;100481.21;108727;1263;78051;-63
2024/04/26 01:05:01;;;;;;;43.30;29.30;;;;;;;2.70;77.92;100483.61;108803;1264;60826;-63
2024/04/26 01:07:27;;;;;;;42.80;29.20;;;;;;;2.70;77.98;100484.45;108562;1260;139306;-63
2024/04/26 01:09:54;;;;;;;45.30;30.20;;;;;;;2.69;78.03;100481.27;108790;1260;60623;-63
2024/04/26 01:12:22;;;;;;;47.10;31.50;;;;;;;2.73;78.32;100480.29;108691;1260;139835;-63
2024/04/26 01:14:49;;;;;;;42.10;29.00;;;;;;;2.79;78.69;100483.39;108817;1260;77426;-64
2024/04/26 01:17:15;;;;;;;46.00;31.90;;;;;;;2.90;78.66;100483.06;108831;1260;65150;-63
2024/04/26 01:19:42;;;;;;;43.40;29.70;;;;;;;2.99;78.70;100481.08;108705;1262;139333;-63
2024/04/26 01:22:26;;;;;;;48.40;30.60;;;;;;;3.07;78.82;100487.73;108807;1260;60924;-64
2024/04/26 01:24:53;;;;;;;37.00;26.10;;;;;;;3.18;79.01;100488.28;108623;1260;139321;-64
2024/04/26 01:27:20;;;;;;;37.00;26.40;;;;;;;3.23;78.87;100487.69;108808;1260;60830;-65
2024/04/26 01:29:46;;;;;;;38.60;26.50;;;;;;;3.29;78.90;100487.65;108812;1260;66427;-64
2024/04/26 01:32:13;;;;;;;36.70;24.90;;;;;;;3.34;78.99;100486.33;108715;1260;139020;-64
2024/04/26 01:34:39;;;;;;;36.70;25.90;;;;;;;3.38;78.87;100489.09;108836;1260;60514;-65
2024/04/26 01:37:06;;;;;;;37.10;24.70;;;;;;;3.36;78.56;100486.58;108710;1260;139419;-64
2024/04/26 01:39:32;;;;;;;31.00;24.20;;;;;;;3.32;78.64;100488.83;108802;1260;75647;-63
2024/04/26 01:41:59;;;;;;;33.10;24.90;;;;;;;3.30;78.50;100487.18;108698;1260;139409;-64
2024/04/26 01:44:25;;;;;;;32.20;23.20;;;;;;;3.26;78.29;100486.42;108756;1260;60876;-63
2024/04/26 01:46:52;;;;;;;35.80;24.60;;;;;;;3.21;78.40;100489.67;108750;1260;60580;-64
2024/04/26 01:49:20;;;;;;;32.80;22.60;;;;;;;3.13;78.00;100494.44;108731;1260;139167;-64
2024/04/26 01:51:47;;;;;;;35.10;23.60;;;;;;;3.05;78.13;100494.73;108801;1261;76413;-64
2024/04/26 01:54:13;;;;;;;35.60;25.00;;;;;;;2.97;77.98;100495.02;108669;1269;139108;-64
2024/04/26 01:56:40;;;;;;;31.90;23.50;;;;;;;2.90;78.15;100493.30;108796;1260;73505;-64
2024/04/26 01:59:08;;;;;;;32.70;22.40;;;;;;;2.84;78.26;100497.67;108774;1260;60636;-61
2024/04/26 02:01:34;;;;;;;31.30;23.30;;;;;;;2.80;78.34;100500.20;108719;1260;139058;-61
2024/04/26 02:04:00;;;;;;;31.80;21.90;;;;;;;2.74;78.27;100498.19;108703;1260;61341;-61
2024/04/26 02:06:27;;;;;;;30.70;22.40;;;;;;;2.70;78.24;100500.56;108682;1263;140190;-61
2024/04/26 02:08:53;;;;;;;29.20;22.10;;;;;;;2.65;78.45;100502.04;108784;1260;73673;-62
2024/04/26 02:11:20;;;;;;;26.90;18.90;;;;;;;2.60;78.44;100508.19;108734;1260;60720;-62
2024/04/26 02:13:46;;;;;;;25.00;18.60;;;;;;;2.56;78.57;100509.54;108679;1260;139163;-62
2024/04/26 02:16:13;;;;;;;26.10;19.10;;;;;;;2.54;78.65;100509.24;108792;1260;60870;-61
2024/04/26 02:18:39;;;;;;;27.40;18.30;;;;;;;2.51;78.69;100508.44;108704;1260;139029;-61
2024/04/26 02:21:07;;;;;;;24.70;18.50;;;;;;;2.52;78.98;100511.42;108780;1260;72355;-62
2024/04/26 02:23:33;;;;;;;22.60;17.30;;;;;;;2.52;79.20;100510.90;108787;1260;60554;-61
2024/04/26 02:26:00;;;;;;;26.60;18.90;;;;;;;2.52;79.29;100512.27;108670;1260;139623;-61
2024/04/26 02:28:26;;;;;;;24.20;18.50;;;;;;;2.54;79.31;100514.13;108840;1260;76230;-62
2024/04/26 02:30:53;;;;;;;27.80;19.10;;;;;;;2.57;79.53;100513.88;108499;1260;263684;-61
2024/04/26 02:33:19;;;;;;;26.20;18.70;;;;;;;2.59;79.59;100515.56;108792;1262;73417;-62
2024/04/26 02:35:46;;;;;;;24.00;19.60;;;;;;;2.61;79.85;100517.42;108791;1260;60925;-62
2024/04/26 02:38:12;;;;;;;23.70;18.30;;;;;;;2.62;79.67;100522.87;108680;1260;139708;-62
2024/04/26 02:40:39;;;;;;;23.10;18.70;;;;;;;2.64;79.77;100522.06;108873;1260;75592;-62
2024/04/26 02:43:06;;;;;;;24.50;17.90;;;;;;;2.64;79.80;100520.90;108731;1260;139223;-63
2024/04/26 02:45:33;;;;;;;27.10;20.10;;;;;;;2.65;79.86;100520.60;108796;1260;70712;-62
2024/04/26 02:48:00;;;;;;;24.30;19.40;;;;;;;2.66;79.81;100516.15;108738;1260;139332;-62
2024/04/26 02:50:26;;;;;;;25.80;18.60;;;;;;;2.70;79.95;100522.95;108805;1260;61362;-62
2024/04/26 02:52:53;;;;;;;24.20;18.90;;;;;;;2.76;80.08;100524.10;108857;1260;77305;-62
2024/04/26 02:55:19;;;;;;;23.20;19.30;;;;;;;2.81;80.12;100527.30;108649;1260;139814;-62
2024/04/26 02:57:46;;;;;;;26.10;19.70;;;;;;;2.84;80.11;100523.83;108790;1260;72736;-62
2024/04/26 03:00:12;;;;;;;24.80;19.10;;;;;;;2.88;80.20;100521.13;108666;1260;139477;-62
2024/04/26 03:02:39;;;;;;;22.80;18.30;;;;;;;2.95;80.29;100524.57;108828;1260;61406;-62
2024/04/26 03:05:05;;;;;;;25.50;20.20;;;;;;;3.03;80.62;100526.38;108801;1260;77908;-62
2024/04/26 03:07:32;;;;;;;25.50;19.30;;;;;;;3.11;80.55;100522.29;108731;1260;139780;-62
2024/04/26 03:09:59;;;;;;;24.20;19.80;;;;;;;3.20;80.63;100522.72;108803;1260;73373;-62
2024/04/26 03:12:25;;;;;;;28.90;20.50;;;;;;;3.28;80.80;100527.27;108677;1260;139916;-62
2024/04/26 03:14:52;;;;;;;26.30;20.00;;;;;;;3.36;80.67;100527.52;108810;1260;61007;-61
2024/04/26 03:17:18;;;;;;;23.40;19.10;;;;;;;3.41;80.58;100531.42;108785;1260;76503;-62
2024/04/26 03:19:48;;;;;;;25.30;20.00;;;;;;;3.47;80.58;100534.33;108737;1260;139074;-62
2024/04/26 03:22:15;;;;;;;25.80;20.10;;;;;;;3.52;80.45;100532.34;108770;1260;71860;-63
2024/04/26 03:24:42;;;;;;;25.40;20.20;;;;;;;3.58;80.49;100535.03;108686;1260;139476;-63
2024/04/26 03:27:09;;;;;;;23.20;19.40;;;;;;;3.61;80.32;100536.05;108797;1265;60825;-63
2024/04/26 03:29:36;;;;;;;25.20;20.00;;;;;;;3.64;80.27;100536.73;108817;1260;76031;-63
2024/04/26 03:32:03;;;;;;;26.10;19.90;;;;;;;3.70;80.27;100538.60;108756;1260;139014;-62
2024/04/26 03:34:29;;;;;;;28.00;20.80;;;;;;;3.78;80.32;100536.88;108717;1260;74042;-62
2024/04/26 03:36:56;;;;;;;26.10;19.50;;;;;;;3.88;80.29;100542.57;108680;1260;139640;-62
2024/04/26 03:39:23;;;;;;;27.70;20.40;;;;;;;3.99;80.37;100546.39;108725;1263;60671;-61
2024/04/26 03:41:49;;;;;;;26.30;20.80;;;;;;;4.14;80.64;100547.83;108814;1260;76214;-61
2024/04/26 03:44:16;;;;;;;25.50;19.70;;;;;;;4.46;81.36;100550.67;108803;1260;66198;-61
2024/04/26 03:46:43;;;;;;;29.30;19.90;;;;;;;4.93;81.81;100546.88;108831;1260;72865;-61
2024/04/26 03:49:12;;;;;;;26.00;20.20;;;;;;;5.10;80.31;100548.34;108662;1260;139338;-62
2024/04/26 03:51:38;;;;;;;24.50;19.20;;;;;;;5.09;79.43;100547.96;108851;1260;60748;-62
2024/04/26 03:54:05;;;;;;;24.50;18.70;;;;;;;5.16;79.56;100550.71;108687;1260;138579;-62
2024/04/26 03:56:32;;;;;;;22.90;18.10;;;;;;;5.45;79.97;100549.67;108787;1260;64144;-62
2024/04/26 03:58:58;;;;;;;22.80;18.80;;;;;;;5.51;78.83;100550.97;108771;1260;70608;-62
2024/04/26 04:01:25;;;;;;;23.90;18.50;;;;;;;5.41;78.16;100559.76;108624;1263;138893;-62
2024/04/26 04:03:51;;;;;;;23.30;18.10;;;;;;;5.26;77.69;100556.88;108788;1260;60642;-62
2024/04/26 04:06:18;;;;;;;24.80;19.20;;;;;;;5.13;77.50;100558.75;108640;1260;138682;-62
2024/04/26 04:08:47;;;;;;;23.80;18.40;;;;;;;5.01;77.40;100558.77;108753;1260;65098;-62
2024/04/26 04:11:16;;;;;;;23.40;18.20;;;;;;;4.89;77.30;100560.31;108714;1262;72755;-62
2024/04/26 04:13:43;;;;;;;24.10;17.90;;;;;;;4.86;77.63;100562.77;108678;1260;139993;-62
2024/04/26 04:16:10;;;;;;;24.10;17.50;;;;;;;4.96;78.09;100564.76;108788;1260;60595;-62
2024/04/26 04:18:37;;;;;;;20.30;16.70;;;;;;;5.35;79.21;100565.44;108680;1260;139891;-62
2024/04/26 04:21:03;;;;;;;22.80;16.50;;;;;;;6.23;80.45;100562.96;108763;1260;66309;-62
2024/04/26 04:23:30;;;;;;;21.00;15.80;;;;;;;7.06;79.77;100561.73;108694;1260;73124;-62
2024/04/26 04:25:57;;;;;;;18.30;16.20;;;;;;;8.10;79.98;100564.73;108725;1260;139457;-62
2024/04/26 04:28:24;;;;;;;20.00;15.90;;;;;;;9.37;79.59;100562.68;108806;1260;60776;-61
2024/04/26 04:30:51;;;;;;;17.40;14.80;;;;;;;10.97;79.39;100554.37;108698;1260;138667;-62
2024/04/26 04:33:19;;;;;;;19.90;15.00;;;;;;;12.56;77.79;100548.27;108802;1260;65865;-62
2024/04/26 04:35:47;;;;;;;16.30;14.50;;;;;;;13.91;75.61;100542.73;108784;1260;74113;-62
2024/04/26 04:38:14;;;;;;;19.20;14.20;;;;;;;15.14;73.69;100541.13;108695;1260;139247;-63
2024/04/26 04:40:40;;;;;;;15.10;13.10;;;;;;;16.23;71.94;100545.33;108792;1260;60885;-62
2024/04/26 04:43:09;;;;;;;14.80;13.00;;;;;;;17.19;69.73;100541.83;108661;1260;138558;-62
2024/04/26 04:45:36;;;;;;;14.00;12.40;;;;;;;18.03;68.04;100538.58;108762;1260;65448;-63
2024/04/26 04:48:02;;;;;;;14.60;13.10;;;;;;;18.77;66.14;100547.08;108641;1260;138953;-62
2024/04/26 04:50:29;;;;;;;14.80;13.10;;;;;;;19.46;64.84;100543.87;108756;1260;60680;-63
2024/04/26 04:52:55;;;;;;;14.40;12.80;;;;;;;19.96;62.73;100548.97;108817;1260;60686;-63
2024/04/26 04:55:22;;;;;;;13.70;11.20;;;;;;;20.40;61.29;100551.58;108612;1260;139346;-62
2024/04/26 04:57:48;;;;;;;14.50;11.60;;;;;;;20.93;60.22;100553.42;108733;1260;61885;-63
2024/04/26 05:00:15;;;;;;;12.10;10.90;;;;;;;21.50;59.04;100553.45;108600;1260;139544;-64
2024/04/26 05:02:42;;;;;;;12.60;11.20;;;;;;;21.99;57.55;100553.70;108741;1260;60570;-62
2024/04/26 05:05:08;;;;;;;10.90;9.80;;;;;;;22.35;56.13;100554.92;108672;1261;60504;-63
2024/04/26 05:07:35;;;;;;;12.00;10.80;;;;;;;22.76;55.06;100556.84;108598;1263;138389;-63
2024/04/26 05:10:02;;;;;;;12.10;10.20;;;;;;;23.23;54.10;100561.41;108724;1260;64170;-63
2024/04/26 05:12:29;;;;;;;11.20;10.00;;;;;;;23.71;53.14;100564.20;108681;1260;139414;-63
2024/04/26 05:14:55;;;;;;;12.60;10.30;;;;;;;24.16;52.04;100562.93;108807;1260;60609;-63
2024/04/26 05:17:22;;;;;;;10.80;9.80;;;;;;;24.41;50.71;100565.65;108772;1260;60776;-61
2024/04/26 05:19:48;;;;;;;12.30;10.50;;;;;;;24.60;49.68;100564.45;108710;1260;138647;-61
2024/04/26 05:22:15;;;;;;;11.80;10.10;;;;;;;24.60;48.70;100571.83;108789;1261;66240;-62
2024/04/26 05:24:42;;;;;;;12.70;9.60;;;;;;;23.85;46.86;100576.84;108661;1260;138948;-63
2024/04/26 05:27:09;;;;;;;11.40;9.50;;;;;;;22.62;45.67;100576.35;108717;1260;60654;-62
2024/04/26 05:29:36;;;;;;;11.90;9.60;;;;;;;21.18;45.29;100576.63;108799;1260;60612;-63
2024/04/26 05:32:03;;;;;;;12.20;9.70;;;;;;;19.80;45.38;100580.01;108706;1260;139235;-63
2024/04/26 05:34:29;;;;;;;12.10;9.90;;;;;;;18.46;45.61;100583.48;108786;1260;64783;-63
2024/04/26 05:36:56;;;;;;;10.20;9.10;;;;;;;17.39;46.46;100588.38;108692;1260;138754;-63
2024/04/26 05:39:22;;;;;;;12.70;11.20;;;;;;;16.55;47.07;100587.24;108791;1260;60648;-63
2024/04/26 05:41:49;;;;;;;10.50;9.50;;;;;;;15.77;47.67;100591.17;108785;1260;60536;-63
2024/04/26 05:44:15;;;;;;;11.90;10.40;;;;;;;15.17;48.58;100592.23;108669;1261;139089;-62
2024/04/26 05:46:42;;;;;;;11.10;9.90;;;;;;;14.73;49.19;100596.46;108745;1260;66459;-63
2024/04/26 05:49:08;;;;;;;13.20;11.40;;;;;;;14.31;49.62;100598.29;108635;1260;139056;-62
2024/04/26 05:51:35;;;;;;;12.90;11.10;;;;;;;13.88;50.01;100600.92;108770;1260;60800;-63
2024/04/26 05:54:04;;;;;;;13.60;10.50;;;;;;;13.46;50.44;100607.04;108667;1260;139229;-62
2024/04/26 05:56:31;;;;;;;14.50;10.60;;;;;;;13.10;51.19;100613.98;108713;1260;75858;-63
2024/04/26 05:58:58;;;;;;;12.60;9.80;;;;;;;12.78;51.58;100617.27;108679;1260;66651;-62
2024/04/26 06:01:24;;;;;;;11.50;10.30;;;;;;;12.51;52.12;100615.13;108658;1260;139901;-62
2024/04/26 06:03:51;;;;;;;14.90;10.80;;;;;;;12.26;52.49;100617.90;108777;1259;61171;-62
2024/04/26 06:06:21;;;;;;;15.00;11.00;;;;;;;12.04;52.94;100621.77;108641;1259;138936;-62
2024/04/26 06:08:47;;;;;;;11.20;10.00;;;;;;;11.85;53.46;100618.95;108755;1263;75066;-63
2024/04/26 06:11:14;;;;;;;13.90;10.30;;;;;;;11.70;53.90;100620.09;108828;1259;67368;-61
2024/04/26 06:13:41;;;;;;;15.90;11.10;;;;;;;11.59;54.22;100622.86;108612;1259;138931;-63
2024/04/26 06:16:07;;;;;;;12.00;9.90;;;;;;;11.43;54.47;100624.34;108703;1260;60901;-68
2024/04/26 06:18:35;;;;;;;11.70;10.30;;;;;;;11.31;54.92;100622.69;108574;1260;138679;-66
2024/04/26 06:21:02;;;;;;;25.90;22.50;;;;;;;11.18;55.25;100626.63;108704;1260;75538;-65
2024/04/26 06:23:28;;;;;;;17.20;12.00;;;;;;;11.06;55.58;100627.95;108802;1260;66298;-66
2024/04/26 06:25:55;;;;;;;16.40;10.90;;;;;;;10.98;55.98;100633.05;108683;1259;138836;-66
2024/04/26 06:28:21;;;;;;;13.30;10.30;;;;;;;10.90;56.27;100634.12;108780;1259;64172;-66
2024/04/26 06:30:48;;;;;;;11.80;10.40;;;;;;;10.87;56.58;100636.52;108704;1260;140340;-66
2024/04/26 06:33:14;;;;;;;14.30;10.00;;;;;;;10.81;56.47;100636.02;108800;1259;74618;-66
2024/04/26 06:35:43;;;;;;;12.00;9.90;;;;;;;10.70;56.58;100638.06;108834;1260;65988;-66
2024/04/26 06:38:14;;;;;;;11.60;9.90;;;;;;;10.59;56.73;100640.44;108736;1260;139412;-66
2024/04/26 06:40:41;;;;;;;14.80;10.40;;;;;;;10.53;57.18;100641.02;108826;1259;60702;-66
2024/04/26 06:43:07;;;;;;;16.20;13.50;;;;;;;10.49;57.35;100642.51;108673;1260;139621;-66
2024/04/26 06:45:34;;;;;;;13.40;11.30;;;;;;;10.43;57.59;100646.20;108805;1259;77287;-66
2024/04/26 06:48:00;;;;;;;11.80;10.50;;;;;;;10.43;58.04;100653.41;108694;1260;139724;-66
2024/04/26 06:50:27;;;;;;;14.70;10.80;;;;;;;10.45;58.18;100655.22;108858;1260;71426;-66
2024/04/26 06:52:53;;;;;;;15.20;10.90;;;;;;;10.48;58.51;100654.77;108761;1260;60910;-67
2024/04/26 06:55:20;;;;;;;12.60;11.10;;;;;;;10.52;58.41;100658.52;108693;1259;138667;-67
2024/04/26 06:57:46;;;;;;;12.30;10.40;;;;;;;10.57;58.90;100659.89;108727;1260;76173;-62
2024/04/26 07:00:13;;;;;;;13.80;11.40;;;;;;;10.66;59.11;100666.77;108667;1259;138971;-63
2024/04/26 07:02:39;;;;;;;12.00;10.60;;;;;;;10.71;59.10;100669.86;108772;1260;73293;-62
2024/04/26 07:05:06;;;;;;;16.50;10.90;;;;;;;10.75;59.21;100672.75;108851;1259;60728;-62
2024/04/26 07:07:33;;;;;;;14.50;11.00;;;;;;;10.79;59.28;100669.52;108727;1259;139244;-62
2024/04/26 07:09:59;;;;;;;12.60;9.90;;;;;;;10.82;59.30;100671.86;108769;1260;75988;-62
2024/04/26 07:12:26;;;;;;;12.10;10.60;;;;;;;10.85;59.37;100675.98;108691;1259;138870;-62
2024/04/26 07:14:52;;;;;;;14.60;10.40;;;;;;;10.89;59.46;100682.39;108679;1264;73567;-61
2024/04/26 07:17:19;;;;;;;12.70;9.50;;;;;;;10.92;59.40;100679.10;108817;1260;60773;-61
2024/04/26 07:19:49;;;;;;;10.80;9.70;;;;;;;10.94;59.50;100678.80;108686;1260;139284;-62
2024/04/26 07:22:15;;;;;;;12.40;10.10;;;;;;;11.03;59.41;100678.99;108795;1259;77553;-62
2024/04/26 07:24:42;;;;;;;11.30;9.00;;;;;;;11.06;59.47;100678.55;108719;1259;139635;-63
2024/04/26 07:27:08;;;;;;;11.90;9.00;;;;;;;11.10;59.52;100677.06;108746;1259;60914;-62
2024/04/26 07:29:35;;;;;;;11.20;8.80;;;;;;;11.13;59.23;100680.46;108664;1260;60608;-63
2024/04/26 07:32:02;;;;;;;9.80;8.60;;;;;;;11.14;59.15;100676.42;108734;1260;138605;-62
2024/04/26 07:34:29;;;;;;;11.50;9.20;;;;;;;11.14;58.99;100684.33;108824;1259;77560;-63
2024/04/26 07:36:56;;;;;;;11.80;8.90;;;;;;;11.15;59.00;100679.77;108702;1260;138742;-63
2024/04/26 07:39:24;;;;;;;10.20;9.10;;;;;;;11.15;59.05;100682.77;108794;1260;73686;-62
2024/04/26 07:41:50;;;;;;;9.70;8.70;;;;;;;11.18;59.31;100681.26;108802;1260;60583;-62
2024/04/26 07:44:17;;;;;;;11.50;9.80;;;;;;;11.24;59.39;100683.13;108830;1259;60606;-62
2024/04/26 07:46:43;;;;;;;11.10;8.30;;;;;;;11.30;59.42;100682.05;108776;1260;76421;-62
2024/04/26 07:49:10;;;;;;;12.00;9.30;;;;;;;11.36;59.40;100679.35;108635;1260;139271;-62
2024/04/26 07:51:37;;;;;;;10.70;9.70;;;;;;;11.42;59.35;100682.48;108785;1260;71935;-62
2024/04/26 07:54:03;;;;;;;9.10;8.20;;;;;;;11.46;59.13;100683.06;108698;1263;139742;-62
2024/04/26 07:56:30;;;;;;;9.50;8.30;;;;;;;11.46;59.01;100683.42;108848;1260;60886;-63
2024/04/26 07:58:56;;;;;;;10.50;8.40;;;;;;;11.54;59.20;100686.57;108797;1259;75298;-63
2024/04/26 08:01:23;;;;;;;9.30;8.30;;;;;;;11.66;59.35;100682.92;108743;1260;139033;-63
2024/04/26 08:03:50;;;;;;;9.70;8.20;;;;;;;11.79;59.14;100680.02;108799;1261;71558;-63
2024/04/26 08:06:17;;;;;;;9.50;8.30;;;;;;;11.89;58.86;100677.58;108625;1259;138539;-62
2024/04/26 08:08:43;;;;;;;9.40;8.00;;;;;;;12.00;58.83;100674.83;108735;1260;61563;-62
2024/04/26 08:11:10;;;;;;;11.60;7.60;;;;;;;12.11;58.76;100677.47;108843;1259;75570;-62
2024/04/26 08:13:36;;;;;;;9.30;8.20;;;;;;;12.30;58.88;100679.73;108704;1260;138514;-62
2024/04/26 08:16:03;;;;;;;9.30;6.90;;;;;;;12.51;58.32;100679.73;108801;1259;72766;-63
2024/04/26 08:18:30;;;;;;;10.70;7.80;;;;;;;12.66;57.68;100679.59;108622;1259;138949;-62
2024/04/26 08:20:56;;;;;;;11.30;8.40;;;;;;;12.78;57.54;100681.02;108798;1260;61375;-63
2024/04/26 08:23:23;;;;;;;10.00;9.00;;;;;;;12.95;57.76;100681.43;108815;1260;77065;-62
2024/04/26 08:25:49;;;;;;;9.30;7.40;;;;;;;13.20;57.30;100684.40;108697;1260;138558;-62
2024/04/26 08:28:16;;;;;;;7.90;6.50;;;;;;;13.35;56.32;100682.52;108800;1260;73252;-63
2024/04/26 08:30:44;;;;;;;5.90;5.00;;;;;;;13.51;55.94;100679.19;108670;1260;138493;-63
2024/04/26 08:33:11;;;;;;;7.30;5.10;;;;;;;13.62;55.49;100681.27;108785;1260;61533;-63
2024/04/26 08:35:38;;;;;;;8.00;5.10;;;;;;;13.58;54.85;100683.32;108809;1260;77241;-63
2024/04/26 08:38:04;;;;;;;8.60;4.90;;;;;;;13.52;54.51;100688.20;108675;1260;139167;-62
2024/04/26 08:40:31;;;;;;;5.00;4.30;;;;;;;13.46;54.28;100684.60;108824;1260;71539;-62
2024/04/26 08:42:58;;;;;;;5.20;4.40;;;;;;;13.37;53.78;100689.25;108573;1261;138864;-63
2024/04/26 08:45:24;;;;;;;4.20;3.70;;;;;;;13.38;54.09;100693.66;108688;1260;60726;-62
2024/04/26 08:47:51;;;;;;;6.80;4.40;;;;;;;13.50;53.99;100690.46;108536;1260;138893;-63
2024/04/26 08:50:19;;;;;;;6.30;4.30;;;;;;;13.57;53.73;100688.43;108637;1260;65956;-63
2024/04/26 08:52:47;;;;;;;5.00;4.00;;;;;;;13.63;53.66;100687.61;108649;1260;71611;-62
2024/04/26 08:55:14;;;;;;;5.00;3.90;;;;;;;13.73;53.67;100685.79;108542;1260;138777;-62
2024/04/26 08:57:41;;;;;;;5.60;4.50;;;;;;;13.86;53.69;100685.77;108794;1260;61264;-62
2024/04/26 09:00:07;;;;;;;4.40;4.00;;;;;;;14.07;53.59;100685.44;108503;1260;146126;-62
2024/04/26 09:02:34;;;;;;;5.80;4.00;;;;;;;14.33;53.25;100684.44;108725;1260;67273;-62
2024/04/26 09:05:01;;;;;;;5.30;4.10;;;;;;;14.46;52.82;100681.73;108597;1260;73380;-63
2024/04/26 09:07:28;;;;;;;4.60;4.10;;;;;;;14.45;52.51;100685.42;108692;1260;138703;-62
2024/04/26 09:09:55;;;;;;;4.40;3.70;;;;;;;14.42;52.08;100688.39;108784;1260;60617;-62
2024/04/26 09:12:22;;;;;;;3.00;2.60;;;;;;;14.34;51.63;100686.91;108607;1260;138627;-62
2024/04/26 09:14:48;;;;;;;4.60;3.30;;;;;;;14.41;51.44;100687.68;108724;1260;65328;-62
2024/04/26 09:17:15;;;;;;;5.50;3.80;;;;;;;14.58;51.32;100681.30;108768;1261;73669;-62
2024/04/26 09:19:42;;;;;;;5.40;4.70;;;;;;;14.82;51.14;100683.42;108667;1260;138409;-63
2024/04/26 09:22:08;;;;;;;3.60;3.10;;;;;;;15.03;50.99;100680.38;108822;1260;60842;-62
2024/04/26 09:24:35;;;;;;;4.20;3.20;;;;;;;15.17;50.56;100687.16;108668;1260;139107;-62
2024/04/26 09:27:03;;;;;;;6.60;3.60;;;;;;;15.20;50.10;100683.12;108729;1260;66261;-62
2024/04/26 09:29:29;;;;;;;4.10;2.90;;;;;;;15.11;49.52;100689.77;108790;1260;73175;-62
2024/04/26 09:31:59;;;;;;;4.50;3.30;;;;;;;14.88;49.34;100688.94;108661;1260;138594;-62
2024/04/26 09:34:29;;;;;;;3.80;3.10;;;;;;;14.83;49.54;100691.20;108777;1260;64727;-62
2024/04/26 09:36:55;;;;;;;4.10;3.10;;;;;;;15.05;49.68;100685.86;108625;1260;138440;-62
2024/04/26 09:39:22;;;;;;;4.80;3.40;;;;;;;15.27;49.10;100685.98;108718;1260;64960;-62
2024/04/26 09:41:49;;;;;;;4.00;2.90;;;;;;;15.44;49.05;100691.71;108725;1260;72499;-62
2024/04/26 09:44:16;;;;;;;3.50;2.20;;;;;;;15.77;49.26;100693.44;108811;1260;60530;-62
2024/04/26 09:46:42;;;;;;;2.80;2.40;;;;;;;16.01;48.72;100693.32;108682;1260;60629;-62
2024/04/26 09:49:09;;;;;;;3.90;2.90;;;;;;;16.11;48.26;100697.05;108561;1260;138940;-62
2024/04/26 09:51:37;;;;;;;3.60;2.70;;;;;;;16.06;47.85;100698.64;108693;1260;65980;-62
2024/04/26 09:54:04;;;;;;;4.00;3.00;;;;;;;16.09;47.92;100697.41;108634;1260;139773;-62
2024/04/26 09:56:30;;;;;;;2.80;2.40;;;;;;;16.20;47.94;100692.80;108787;1260;60798;-63
2024/04/26 09:58:57;;;;;;;4.20;3.20;;;;;;;16.38;48.01;100697.43;108790;1260;60654;-63
2024/04/26 10:01:23;;;;;;;4.40;3.20;;;;;;;16.53;47.57;100704.87;108587;1260;139840;-63
2024/04/26 10:03:50;;;;;;;4.20;3.00;;;;;;;16.53;47.10;100700.79;108785;1260;65134;-62
2024/04/26 10:06:16;;;;;;;3.40;2.40;;;;;;;16.49;46.98;100700.80;108609;1260;138773;-62
2024/04/26 10:08:43;;;;;;;3.40;2.50;;;;;;;16.67;47.01;100696.20;108758;1260;60452;-62
2024/04/26 10:11:11;;;;;;;3.10;2.50;;;;;;;16.81;46.18;100698.30;108681;1260;60835;-62
2024/04/26 10:13:45;;;;;;;2.70;2.10;;;;;;;16.76;45.72;100701.32;108568;1260;139022;-62
2024/04/26 10:16:12;;;;;;;3.40;2.60;;;;;;;16.68;45.65;100704.86;108720;1263;65025;-63
2024/04/26 10:18:38;;;;;;;5.60;2.30;;;;;;;16.75;45.47;100697.06;108672;1260;138580;-63
2024/04/26 10:21:05;;;;;;;3.50;2.60;;;;;;;16.82;45.18;100699.55;108785;1261;60523;-62
2024/04/26 10:23:35;;;;;;;4.50;2.30;;;;;;;16.91;45.15;100702.73;108726;1260;61369;-63
2024/04/26 10:26:07;;;;;;;3.10;2.40;;;;;;;16.95;44.81;100701.67;108513;1260;139199;-63
2024/04/26 10:28:33;;;;;;;3.50;2.30;;;;;;;16.93;44.81;100705.58;108707;1260;66554;-63
2024/04/26 10:31:00;;;;;;;5.40;2.00;;;;;;;16.92;44.79;100704.16;108447;1260;138614;-63
2024/04/26 10:33:32;;;;;;;3.00;2.00;;;;;;;17.07;44.71;100704.30;108726;1260;60623;-63
2024/04/26 10:36:09;;;;;;;3.50;2.60;;;;;;;17.08;43.91;100703.60;108711;1260;138702;-63
2024/04/26 10:38:42;;;;;;;4.20;2.10;;;;;;;16.89;43.90;100706.10;108833;1260;76457;-63
2024/04/26 10:41:08;;;;;;;2.90;2.00;;;;;;;16.70;43.95;100706.81;108809;1260;65774;-63
2024/04/26 10:43:35;;;;;;;2.90;2.10;;;;;;;16.50;43.61;100704.88;108678;1260;138857;-63
2024/04/26 10:46:02;;;;;;;3.00;1.90;;;;;;;16.38;43.63;100704.52;108820;1259;60596;-62
2024/04/26 10:48:32;;;;;;;2.60;1.90;;;;;;;16.42;44.13;100701.69;108694;1260;139413;-62
2024/04/26 10:51:12;;;;;;;3.40;1.90;;;;;;;16.54;44.10;100698.33;108825;1260;76382;-62
2024/04/26 10:53:40;;;;;;;2.40;1.80;;;;;;;16.54;43.82;100701.86;108863;1259;65183;-63
2024/04/26 10:56:25;;;;;;;3.60;2.50;;;;;;;16.47;43.85;100701.33;108689;1259;138162;-62
2024/04/26 10:58:52;;;;;;;3.50;1.70;;;;;;;16.42;43.69;100703.64;108774;1260;61483;-62
2024/04/26 11:01:22;;;;;;;4.10;2.30;;;;;;;16.23;43.58;100699.91;108574;1265;138425;-62
2024/04/26 11:03:49;;;;;;;3.30;2.30;;;;;;;16.09;43.42;100698.83;108818;1260;75500;-63
2024/04/26 11:06:26;;;;;;;2.70;1.80;;;;;;;15.95;43.57;100702.34;108695;1259;138838;-62